EDMA

Augsburg Airport

Augsburg, Germany
METAR EDMA 181550Z 08002KT 9999 OVC032 M00/M02 Q1024
Observed Flight Rules
Dec-18 @ 15:50 UTC (48 minutes ago) Visual Flight Rules
Wind Visibility Clouds
80° at 2 knots 10,000+ meters
  • Overcast at 3,200' AGL
Temperatures Readings
Current 0°C / 32°F
Dewpoint -2°C / 28°F
Humidity 87%
Altimeter 30.24" Hg
Pressure 1024 hPa
Elevation 463
METAR EDMA 181550Z 08002KT 9999 OVC032 M00/M02 Q1024
Observed Flight Rules
Dec-18 @ 15:50 UTC
(48 minutes ago)
VFR
Wind Visibility
80° at 2 knots 10,000+ meters
Clouds
  • Overcast at 3,200' AGL
Temperature Dewpoint
0°C / 32°F -2°C / 28°F
Humidity Altimeter Pressure
87% 30.24" Hg 1024 hPa